หน้าหลัก
METAR-TAF:

METAR-TAF

ท่าอากาศยาน :

Deauville, ฝรั่งเศส

ละติจูด: 49-21-55N, ลองจิจูด: 000-09-16E, ความสูง: 146 ม.

การสังเกตสภาพอากาศปัจจุบัน

รายงานได้ทำขึ้นเมื่อ 38 นาทีที่แล้ว ณ เวลา 00:00 UTC
ลม 7 นอตจากเหนือ/ตะวันออกเฉียงเหนือ
อุณหภูมิ 15°C
ความชื้น 94%
ความกดอากาศ 1015 hPa
ทัศนวิสัย: 6000 ม.
มีเมฆมาก มืดครึ้มที่ความสูง 600 ฟุต

METAR: LFRG 190000Z AUTO 02007KT 6000 OVC006 15/14 Q1015

เวลา: 02:38 (00:38 UTC)

การพยากรณ์

รายงานได้ทำขึ้นเมื่อ 6 ชั่วโมงและ 16 นาทีที่แล้ว ณ เวลา 18:22 UTC
การพยากรณ์มีผลตั้งแต่วันที่ 18 ณ เวลา 18 UTC จนถึงวันที่ 18 ณ เวลา 24 UTC
ลม 5 นอตจากเหนือ
ทัศนวิสัย 10 กม. หรือมากกว่า
มีเมฆเป็นส่วนมากเว้นเป็นระยะที่ความสูง 1600 ฟุต
ความน่าจะเป็น 30% :
ชั่วคราว
ตั้งแต่วันที่ 18 ณ เวลา 18 UTC จนถึงวันที่ 18 ณ เวลา 24 UTC
ทัศนวิสัย: 4000 ม.
มีเมฆเป็นส่วนมากเว้นเป็นระยะที่ความสูง 800 ฟุต
ฝนโปรยปราย,

TAF: LFRG 181822Z 1818/1824 36005KT 9999 BKN016 PROB30 TEMPO 1818/1824 4000 SHRA BKN008

สังเกตการณ์สภาพอากาศและพยากรณ์อากาศของสนามบินมากกว่า 4000 แห่ง (รายงาน METAR และ TAF).

สถานีที่ดูได้จะแสดงไว้ด้วยจุดสีเหลืองและสีแดงบนแผนที่.

เลื่อนเมาส์ไปเหนือจุดเพื่อดูชื่อสถานี.

แล้วคลิกเพื่อดูสังเกตการณ์และการพยากรณ์สภาพอากาศ.

ในการเปลี่ยนแผนที่: คลิกที่ปุ่มสีเขียวที่มีกากบาทสีดำเพื่อซูมเข้า; ที่ปุ่มสีเขียวที่มีขีดเพื่อซูมออก; หรือที่ลูกศรสีเขียวเพื่อไปยังแผนที่ที่อยู่ติดกัน.


METAR-TAF: